createdAt,value
2018-05-03T00:00:25.007Z,0
2018-05-03T00:01:27.359Z,0
2018-05-03T00:02:29.717Z,0
2018-05-03T00:03:32.353Z,0
2018-05-03T00:04:34.708Z,0
2018-05-03T00:05:37.066Z,0
2018-05-03T00:06:39.712Z,0
2018-05-03T00:07:42.346Z,0
2018-05-03T00:08:44.701Z,0
2018-05-03T00:09:47.060Z,0
2018-05-03T00:10:49.412Z,0
2018-05-03T00:11:51.770Z,0
2018-05-03T00:12:54.405Z,0
2018-05-03T00:13:56.769Z,0
2018-05-03T00:14:59.119Z,0
2018-05-03T00:16:02.037Z,0
2018-05-03T00:17:04.392Z,0
2018-05-03T00:18:06.755Z,0
2018-05-03T00:19:09.389Z,0
2018-05-03T00:20:11.746Z,0
2018-05-03T00:21:14.104Z,0
2018-05-03T00:22:16.461Z,0
2018-05-03T00:23:18.818Z,0
2018-05-03T00:24:21.174Z,0
2018-05-03T00:25:23.527Z,0
2018-05-03T00:26:26.268Z,0
2018-05-03T00:27:28.627Z,0
2018-05-03T00:28:30.981Z,0
2018-05-03T00:29:33.340Z,0
2018-05-03T00:30:35.984Z,0
2018-05-03T00:31:38.336Z,0
2018-05-03T00:32:40.693Z,0
2018-05-03T00:33:43.432Z,0
2018-05-03T00:34:45.789Z,0
2018-05-03T00:35:48.149Z,0
2018-05-03T00:36:50.784Z,0
2018-05-03T00:37:53.524Z,0
2018-05-03T00:38:55.880Z,0
2018-05-03T00:39:58.235Z,0
2018-05-03T00:41:00.597Z,0
2018-05-03T00:42:02.966Z,0
2018-05-03T00:43:05.322Z,0
2018-05-03T00:44:07.679Z,0
2018-05-03T00:45:10.033Z,0
2018-05-03T00:46:12.387Z,0
2018-05-03T00:47:14.751Z,0
2018-05-03T00:48:17.103Z,0
2018-05-03T00:49:19.461Z,0
2018-05-03T00:50:21.840Z,0
2018-05-03T00:51:24.485Z,0
2018-05-03T00:52:26.835Z,0
2018-05-03T00:53:29.470Z,0
2018-05-03T00:54:31.867Z,0
2018-05-03T00:55:34.184Z,0
2018-05-03T00:56:36.819Z,0
2018-05-03T00:57:39.172Z,0
2018-05-03T00:58:41.534Z,0
2018-05-03T00:59:43.892Z,0
2018-05-03T01:00:46.527Z,0
2018-05-03T01:01:48.883Z,0
2018-05-03T01:02:51.241Z,0
2018-05-03T01:03:53.595Z,0
2018-05-03T01:04:55.957Z,0
2018-05-03T01:05:58.631Z,0
2018-05-03T01:07:00.999Z,0
2018-05-03T01:08:03.380Z,0
2018-05-03T01:09:06.053Z,0
2018-05-03T01:10:08.437Z,0
2018-05-03T01:11:11.103Z,0
2018-05-03T01:12:13.478Z,0
2018-05-03T01:13:16.258Z,0
2018-05-03T01:14:19.019Z,0
2018-05-03T01:15:21.406Z,0
2018-05-03T01:16:23.775Z,0
2018-05-03T01:17:26.162Z,0
2018-05-03T01:18:28.549Z,0
2018-05-03T01:19:30.926Z,0
2018-05-03T01:20:33.610Z,0
2018-05-03T01:21:35.988Z,0
2018-05-03T01:22:38.658Z,0
2018-05-03T01:23:41.043Z,0
2018-05-03T01:24:43.420Z,0
2018-05-03T01:25:45.798Z,0
2018-05-03T01:26:48.849Z,0
2018-05-03T01:27:51.816Z,0
2018-05-03T01:28:54.492Z,0
2018-05-03T01:29:56.880Z,0
2018-05-03T01:30:59.252Z,0
2018-05-03T01:32:01.630Z,0
2018-05-03T01:33:04.414Z,0
2018-05-03T01:34:06.791Z,0
2018-05-03T01:35:09.170Z,0
2018-05-03T01:36:11.557Z,0
2018-05-03T01:37:13.932Z,0
2018-05-03T01:38:16.623Z,0
2018-05-03T01:39:19.011Z,0
2018-05-03T01:40:21.662Z,0
2018-05-03T01:41:24.338Z,0
2018-05-03T01:42:26.713Z,0
2018-05-03T01:43:29.100Z,0
2018-05-03T01:44:31.488Z,0
2018-05-03T01:45:33.872Z,0
2018-05-03T01:46:36.529Z,0
2018-05-03T01:47:38.913Z,0
2018-05-03T01:48:41.290Z,0
2018-05-03T01:49:43.679Z,0
2018-05-03T01:50:46.057Z,0
2018-05-03T01:51:48.430Z,0
2018-05-03T01:52:50.814Z,0
2018-05-03T01:53:53.197Z,0
2018-05-03T01:54:55.580Z,0
2018-05-03T01:55:57.966Z,0
2018-05-03T01:57:00.350Z,0
2018-05-03T01:58:02.732Z,0
2018-05-03T01:59:05.106Z,0
2018-05-03T02:00:07.499Z,0
2018-05-03T02:01:10.152Z,0
2018-05-03T02:02:12.532Z,0
2018-05-03T02:03:14.913Z,0
2018-05-03T02:04:17.565Z,0
2018-05-03T02:05:20.325Z,0
2018-05-03T02:06:22.711Z,0
2018-05-03T02:07:25.099Z,0
2018-05-03T02:08:27.862Z,0
2018-05-03T02:09:30.246Z,0
2018-05-03T02:10:33.210Z,0
2018-05-03T02:11:35.598Z,0
2018-05-03T02:12:37.976Z,0
2018-05-03T02:13:40.357Z,0
2018-05-03T02:14:43.015Z,0
2018-05-03T02:15:45.719Z,0
2018-05-03T02:16:48.102Z,0
2018-05-03T02:17:50.852Z,0
2018-05-03T02:18:53.235Z,0
2018-05-03T02:19:55.617Z,0
2018-05-03T02:20:57.995Z,0
2018-05-03T02:22:00.384Z,0
2018-05-03T02:23:02.755Z,0
2018-05-03T02:24:05.134Z,0
2018-05-03T02:25:07.542Z,0
2018-05-03T02:26:09.910Z,0
2018-05-03T02:27:12.305Z,0
2018-05-03T02:28:14.704Z,0
2018-05-03T02:29:17.090Z,0
2018-05-03T02:30:19.737Z,0
2018-05-03T02:31:22.417Z,0
2018-05-03T02:32:25.083Z,0
2018-05-03T02:33:27.765Z,0
2018-05-03T02:34:30.159Z,0
2018-05-03T02:35:33.268Z,0
2018-05-03T02:36:35.929Z,0
2018-05-03T02:37:38.321Z,0
2018-05-03T02:38:40.688Z,0
2018-05-03T02:39:43.075Z,0
2018-05-03T02:40:45.465Z,0
2018-05-03T02:41:47.845Z,0
2018-05-03T02:42:50.225Z,0
2018-05-03T02:43:52.891Z,0
2018-05-03T02:44:55.274Z,0
2018-05-03T02:45:57.958Z,0
2018-05-03T02:47:00.336Z,0
2018-05-03T02:48:03.321Z,0
2018-05-03T02:49:06.102Z,0
2018-05-03T02:50:08.787Z,0
2018-05-03T02:51:11.166Z,0
2018-05-03T02:52:13.549Z,0
2018-05-03T02:53:16.895Z,0
2018-05-03T02:54:19.851Z,0
2018-05-03T02:55:22.503Z,0
2018-05-03T02:56:24.897Z,0
2018-05-03T02:57:27.277Z,0
2018-05-03T02:58:31.173Z,4
2018-05-03T02:59:33.563Z,4
2018-05-03T03:00:35.939Z,4
2018-05-03T03:01:38.316Z,4
2018-05-03T03:02:41.369Z,4
2018-05-03T03:03:43.742Z,4
2018-05-03T03:04:46.127Z,4
2018-05-03T03:05:48.821Z,8
2018-05-03T03:06:51.863Z,4
2018-05-03T03:07:54.460Z,8
2018-05-03T03:08:56.845Z,8
2018-05-03T03:09:59.604Z,12
2018-05-03T03:11:02.280Z,12
2018-05-03T03:12:04.945Z,12
2018-05-03T03:13:07.316Z,20
2018-05-03T03:14:09.702Z,20
2018-05-03T03:15:12.374Z,24
2018-05-03T03:16:14.764Z,24
2018-05-03T03:17:17.149Z,28
2018-05-03T03:18:19.529Z,36
2018-05-03T03:19:21.906Z,40
2018-05-03T03:20:24.294Z,44
2018-05-03T03:21:26.673Z,48
2018-05-03T03:22:29.054Z,56
2018-05-03T03:23:31.717Z,64
2018-05-03T03:24:34.100Z,68
2018-05-03T03:25:36.523Z,80
2018-05-03T03:26:38.902Z,92
2018-05-03T03:27:41.277Z,100
2018-05-03T03:28:43.940Z,112
2018-05-03T03:29:46.333Z,124
2018-05-03T03:30:48.716Z,136
2018-05-03T03:31:51.093Z,148
2018-05-03T03:32:53.769Z,160
2018-05-03T03:33:56.430Z,176
2018-05-03T03:34:58.806Z,192
2018-05-03T03:36:01.474Z,212
2018-05-03T03:37:04.215Z,228
2018-05-03T03:38:06.593Z,248
2018-05-03T03:39:08.992Z,276
2018-05-03T03:40:11.361Z,296
2018-05-03T03:41:14.315Z,324
2018-05-03T03:42:17.264Z,352
2018-05-03T03:43:19.639Z,384
2018-05-03T03:44:22.035Z,412
2018-05-03T03:45:24.979Z,444
2018-05-03T03:46:27.346Z,476
2018-05-03T03:47:30.182Z,516
2018-05-03T03:48:32.568Z,552
2018-05-03T03:49:35.240Z,592
2018-05-03T03:50:37.626Z,628
2018-05-03T03:51:40.001Z,660
2018-05-03T03:52:42.765Z,700
2018-05-03T03:53:45.162Z,740
2018-05-03T03:54:47.535Z,776
2018-05-03T03:55:49.915Z,816
2018-05-03T03:56:52.298Z,860
2018-05-03T03:57:54.689Z,900
2018-05-03T03:58:57.131Z,936
2018-05-03T03:59:59.833Z,976
2018-05-03T04:01:02.216Z,1020
2018-05-03T04:02:04.881Z,1060
2018-05-03T04:03:07.264Z,1104
2018-05-03T04:04:09.651Z,1152
2018-05-03T04:05:12.016Z,1200
2018-05-03T04:06:14.401Z,1240
2018-05-03T04:07:17.063Z,1280
2018-05-03T04:08:19.842Z,1320
2018-05-03T04:09:22.790Z,1356
2018-05-03T04:10:25.471Z,1396
2018-05-03T04:11:27.840Z,1440
2018-05-03T04:12:30.230Z,1488
2018-05-03T04:13:32.606Z,1532
2018-05-03T04:14:34.995Z,1580
2018-05-03T04:15:37.380Z,1628
2018-05-03T04:16:39.762Z,1676
2018-05-03T04:17:42.148Z,1724
2018-05-03T04:18:44.535Z,1780
2018-05-03T04:19:47.902Z,1832
2018-05-03T04:20:50.276Z,1892
2018-05-03T04:21:53.220Z,1952
2018-05-03T04:22:55.604Z,2020
2018-05-03T04:23:57.982Z,2096
2018-05-03T04:25:00.372Z,2172
2018-05-03T04:26:02.755Z,2248
2018-05-03T04:27:05.808Z,2344
2018-05-03T04:28:08.464Z,2432
2018-05-03T04:29:11.242Z,2500
2018-05-03T04:30:13.614Z,2584
2018-05-03T04:31:15.991Z,2664
2018-05-03T04:32:18.373Z,2768
2018-05-03T04:33:21.060Z,2872
2018-05-03T04:34:23.436Z,2964
2018-05-03T04:35:25.823Z,3100
2018-05-03T04:36:28.209Z,3228
2018-05-03T04:37:30.866Z,3324
2018-05-03T04:38:33.260Z,3384
2018-05-03T04:39:36.208Z,3420
2018-05-03T04:40:38.972Z,3440
2018-05-03T04:41:41.353Z,3472
2018-05-03T04:42:43.731Z,3516
2018-05-03T04:43:46.406Z,3608
2018-05-03T04:44:48.782Z,3680
2018-05-03T04:45:51.453Z,3792
2018-05-03T04:46:54.157Z,3868
2018-05-03T04:47:56.494Z,3928
2018-05-03T04:48:58.877Z,3988
2018-05-03T04:50:01.257Z,4068
2018-05-03T04:51:04.299Z,4156
2018-05-03T04:52:07.093Z,4252
2018-05-03T04:53:09.479Z,4324
2018-05-03T04:54:12.218Z,4384
2018-05-03T04:55:14.533Z,4436
2018-05-03T04:56:17.300Z,4496
2018-05-03T04:57:19.681Z,4544
2018-05-03T04:58:22.061Z,4588
2018-05-03T04:59:24.741Z,4604
2018-05-03T05:00:27.108Z,4672
2018-05-03T05:01:29.489Z,4756
2018-05-03T05:02:31.886Z,4896
2018-05-03T05:03:34.272Z,5028
2018-05-03T05:04:36.653Z,5124
2018-05-03T05:05:39.326Z,5192
2018-05-03T05:06:42.091Z,5252
2018-05-03T05:07:44.479Z,5304
2018-05-03T05:08:46.872Z,5356
2018-05-03T05:09:49.242Z,5388
2018-05-03T05:10:51.629Z,5396
2018-05-03T05:11:54.016Z,5356
2018-05-03T05:12:56.394Z,5352
2018-05-03T05:13:58.789Z,5324
2018-05-03T05:15:01.179Z,5280
2018-05-03T05:16:03.546Z,5224
2018-05-03T05:17:06.221Z,5168
2018-05-03T05:18:08.614Z,5116
2018-05-03T05:19:11.362Z,5080
2018-05-03T05:20:13.748Z,5116
2018-05-03T05:21:16.522Z,5204
2018-05-03T05:22:18.907Z,5212
2018-05-03T05:23:21.292Z,5224
2018-05-03T05:24:23.675Z,5228
2018-05-03T05:25:26.338Z,5356
2018-05-03T05:26:28.731Z,5376
2018-05-03T05:27:31.120Z,5352
2018-05-03T05:28:33.489Z,5444
2018-05-03T05:29:35.877Z,5724
2018-05-03T05:30:38.374Z,5964
2018-05-03T05:31:41.281Z,6104
2018-05-03T05:32:44.051Z,6192
2018-05-03T05:33:46.434Z,6268
2018-05-03T05:34:48.803Z,6452
2018-05-03T05:35:51.584Z,6620
2018-05-03T05:36:53.966Z,6708
2018-05-03T05:37:56.624Z,6832
2018-05-03T05:38:59.316Z,6932
2018-05-03T05:40:01.680Z,7040
2018-05-03T05:41:04.075Z,7120
2018-05-03T05:42:06.463Z,7164
2018-05-03T05:43:08.839Z,7180
2018-05-03T05:44:11.228Z,7184
2018-05-03T05:45:14.057Z,7216
2018-05-03T05:46:16.723Z,7236
2018-05-03T05:47:19.108Z,7248
2018-05-03T05:48:21.791Z,7264
2018-05-03T05:49:24.824Z,7312
2018-05-03T05:50:28.115Z,7376
2018-05-03T05:51:30.499Z,7420
2018-05-03T05:52:32.877Z,7404
2018-05-03T05:53:35.254Z,7432
2018-05-03T05:54:37.634Z,7468
2018-05-03T05:55:40.009Z,7500
2018-05-03T05:56:42.738Z,7552
2018-05-03T05:57:45.051Z,7604
2018-05-03T05:58:47.721Z,7636
2018-05-03T05:59:50.376Z,7648
2018-05-03T06:00:52.772Z,7636
2018-05-03T06:01:55.155Z,7656
2018-05-03T06:02:57.538Z,7692
2018-05-03T06:03:59.923Z,7728
2018-05-03T06:05:02.299Z,7780
2018-05-03T06:06:04.964Z,7792
2018-05-03T06:07:07.348Z,7836
2018-05-03T06:08:10.008Z,7864
2018-05-03T06:09:12.692Z,7928
2018-05-03T06:10:15.427Z,7976
2018-05-03T06:11:18.018Z,8020
2018-05-03T06:12:20.467Z,8040
2018-05-03T06:13:22.784Z,8100
2018-05-03T06:14:25.549Z,8188
2018-05-03T06:15:28.622Z,8240
2018-05-03T06:16:30.990Z,8300
2018-05-03T06:17:33.376Z,8376
2018-05-03T06:18:36.051Z,8488
2018-05-03T06:19:38.437Z,8568
2018-05-03T06:20:41.784Z,8644
2018-05-03T06:21:44.165Z,8704
2018-05-03T06:22:46.928Z,8776
2018-05-03T06:23:49.304Z,8812
2018-05-03T06:24:52.075Z,8856
2018-05-03T06:25:54.813Z,8876
2018-05-03T06:26:57.161Z,8912
2018-05-03T06:28:00.226Z,8956
2018-05-03T06:29:02.612Z,8980
2018-05-03T06:30:04.993Z,9100
2018-05-03T06:31:07.392Z,9224
2018-05-03T06:32:09.777Z,9280
2018-05-03T06:33:12.175Z,9352
2018-05-03T06:34:14.824Z,9452
2018-05-03T06:35:17.502Z,9516
2018-05-03T06:36:19.891Z,9544
2018-05-03T06:37:22.276Z,9644
2018-05-03T06:38:24.656Z,9720
2018-05-03T06:39:27.319Z,9760
2018-05-03T06:40:30.024Z,9824
2018-05-03T06:41:32.403Z,9804
2018-05-03T06:42:34.788Z,9856
2018-05-03T06:43:37.469Z,10032
2018-05-03T06:44:40.235Z,10168
2018-05-03T06:45:42.619Z,10244
2018-05-03T06:46:45.006Z,10316
2018-05-03T06:47:47.384Z,10376
2018-05-03T06:48:49.767Z,10376
2018-05-03T06:49:52.437Z,10376
2018-05-03T06:50:54.815Z,10412
2018-05-03T06:51:57.479Z,10480
2018-05-03T06:52:59.874Z,10552
2018-05-03T06:54:02.256Z,10664
2018-05-03T06:55:04.927Z,10748
2018-05-03T06:56:07.314Z,10852
2018-05-03T06:57:09.700Z,11016
2018-05-03T06:58:12.089Z,11188
2018-05-03T06:59:15.030Z,11256
2018-05-03T07:00:17.708Z,11416
2018-05-03T07:01:20.080Z,11660
2018-05-03T07:02:22.478Z,11796
2018-05-03T07:03:25.249Z,11904
2018-05-03T07:04:27.712Z,12072
2018-05-03T07:05:30.420Z,12116
2018-05-03T07:06:32.801Z,12148
2018-05-03T07:07:35.190Z,12128
2018-05-03T07:08:37.858Z,12264
2018-05-03T07:09:40.246Z,12392
2018-05-03T07:10:42.920Z,12552
2018-05-03T07:11:45.315Z,12724
2018-05-03T07:12:47.705Z,12968
2018-05-03T07:13:50.099Z,13648
2018-05-03T07:14:52.775Z,13440
2018-05-03T07:15:55.156Z,13516
2018-05-03T07:16:57.549Z,13984
2018-05-03T07:17:59.930Z,14032
2018-05-03T07:19:02.621Z,13460
2018-05-03T07:20:05.387Z,13508
2018-05-03T07:21:07.769Z,13284
2018-05-03T07:22:10.170Z,13136
2018-05-03T07:23:12.543Z,13044
2018-05-03T07:24:14.934Z,12924
2018-05-03T07:25:17.723Z,12848
2018-05-03T07:26:20.107Z,12596
2018-05-03T07:27:22.500Z,12108
2018-05-03T07:28:24.890Z,9940
2018-05-03T07:29:27.593Z,12848
2018-05-03T07:30:29.953Z,12604
2018-05-03T07:31:32.342Z,13128
2018-05-03T07:32:34.720Z,13516
2018-05-03T07:33:37.114Z,14100
2018-05-03T07:34:39.503Z,15076
2018-05-03T07:35:42.294Z,15180
2018-05-03T07:36:44.681Z,14992
2018-05-03T07:37:47.066Z,14784
2018-05-03T07:38:49.446Z,15320
2018-05-03T07:39:51.844Z,19232
2018-05-03T07:40:54.323Z,22592
2018-05-03T07:41:56.937Z,21280
2018-05-03T07:42:59.703Z,20544
2018-05-03T07:44:02.375Z,19392
2018-05-03T07:45:04.765Z,16308
2018-05-03T07:46:07.156Z,15544
2018-05-03T07:47:09.536Z,17240
2018-05-03T07:48:11.925Z,16504
2018-05-03T07:49:14.310Z,16212
2018-05-03T07:50:16.700Z,16360
2018-05-03T07:51:19.090Z,16360
2018-05-03T07:52:21.781Z,14736
2018-05-03T07:53:24.177Z,14240
2018-05-03T07:54:26.840Z,14392
2018-05-03T07:55:29.222Z,14812
2018-05-03T07:56:31.631Z,15048
2018-05-03T07:57:34.294Z,15176
2018-05-03T07:58:36.676Z,15100
2018-05-03T07:59:39.464Z,15264
2018-05-03T08:00:41.844Z,15292
2018-05-03T08:01:44.238Z,15252
2018-05-03T08:02:46.622Z,15880
2018-05-03T08:03:49.204Z,16348
2018-05-03T08:04:51.882Z,17856
2018-05-03T08:05:54.545Z,18868
2018-05-03T08:06:56.933Z,19648
2018-05-03T08:07:59.336Z,23904
2018-05-03T08:09:01.719Z,50976
2018-05-03T08:10:04.104Z,73632
2018-05-03T08:11:06.498Z,71584
2018-05-03T08:12:08.881Z,69056
2018-05-03T08:13:11.273Z,70944
2018-05-03T08:14:13.669Z,57856
2018-05-03T08:15:16.038Z,19252
2018-05-03T08:16:18.429Z,25312
2018-05-03T08:17:20.822Z,22112
2018-05-03T08:18:23.772Z,23008
2018-05-03T08:19:26.166Z,31168
2018-05-03T08:20:28.552Z,45472
2018-05-03T08:21:30.939Z,50304
2018-05-03T08:22:33.325Z,59424
2018-05-03T08:23:35.721Z,63200
2018-05-03T08:24:38.109Z,72736
2018-05-03T08:25:40.505Z,87904
2018-05-03T08:26:42.887Z,94528
2018-05-03T08:27:45.289Z,93472
2018-05-03T08:28:47.699Z,107424
2018-05-03T08:29:50.075Z,85600
2018-05-03T08:30:52.466Z,59840
2018-05-03T08:31:54.950Z,92448
2018-05-03T08:32:57.688Z,92320
2018-05-03T08:34:00.082Z,100192
2018-05-03T08:35:02.465Z,110016
2018-05-03T08:36:04.858Z,101632
2018-05-03T08:37:07.256Z,91392
2018-05-03T08:38:09.634Z,74976
2018-05-03T08:39:12.030Z,70880
2018-05-03T08:40:14.810Z,78176
2018-05-03T08:41:17.188Z,87456
2018-05-03T08:42:19.582Z,88000
2018-05-03T08:43:21.982Z,80224
2018-05-03T08:44:24.371Z,79360
2018-05-03T08:45:26.779Z,69248
2018-05-03T08:46:29.547Z,62624
2018-05-03T08:47:31.935Z,65248
2018-05-03T08:48:34.626Z,74208
2018-05-03T08:49:37.011Z,83072
2018-05-03T08:50:40.012Z,89248
2018-05-03T08:51:42.707Z,89600
2018-05-03T08:52:45.104Z,78112
2018-05-03T08:53:47.883Z,77632
2018-05-03T08:54:50.270Z,89216
2018-05-03T08:55:53.080Z,88544
2018-05-03T08:56:55.350Z,94240
2018-05-03T08:57:58.424Z,92416
2018-05-03T08:59:00.878Z,96416
2018-05-03T09:00:03.266Z,94368
2018-05-03T09:01:05.659Z,95712
2018-05-03T09:02:08.053Z,83392
2018-05-03T09:03:10.717Z,77504
2018-05-03T09:04:13.489Z,75840
2018-05-03T09:05:15.884Z,79776
2018-05-03T09:06:18.557Z,79840
2018-05-03T09:07:20.949Z,78304
2018-05-03T09:08:23.479Z,78912
2018-05-03T09:09:25.919Z,75488
2018-05-03T09:10:28.492Z,78624
2018-05-03T09:11:31.463Z,78368
2018-05-03T09:12:33.862Z,76288
2018-05-03T09:13:36.626Z,81504
2018-05-03T09:14:39.054Z,86240
2018-05-03T09:15:41.777Z,82112
2018-05-03T09:16:44.496Z,78464
2018-05-03T09:17:47.082Z,70720
2018-05-03T09:18:49.755Z,75392
2018-05-03T09:19:52.256Z,82464
2018-05-03T09:20:55.024Z,89248
2018-05-03T09:21:57.443Z,93728
2018-05-03T09:22:59.836Z,100000
2018-05-03T09:24:02.290Z,98464
2018-05-03T09:25:05.173Z,94720
2018-05-03T09:26:08.832Z,92928
2018-05-03T09:27:11.264Z,93152
2018-05-03T09:28:13.898Z,95744
2018-05-03T09:29:16.701Z,94464
2018-05-03T09:30:19.530Z,87808
2018-05-03T09:31:22.209Z,93216
2018-05-03T09:32:25.383Z,104224
2018-05-03T09:33:28.486Z,98528
2018-05-03T09:34:30.884Z,91904
2018-05-03T09:35:33.405Z,92384
2018-05-03T09:36:35.826Z,96960
2018-05-03T09:37:38.377Z,94336
2018-05-03T09:38:40.740Z,87904
2018-05-03T09:39:43.142Z,91232
2018-05-03T09:40:45.824Z,102240
2018-05-03T09:41:48.220Z,94368
2018-05-03T09:42:50.618Z,96896
2018-05-03T09:43:53.014Z,90560
2018-05-03T09:44:55.705Z,87584
2018-05-03T09:45:58.112Z,89760
2018-05-03T09:47:00.789Z,93664
2018-05-03T09:48:03.170Z,92192
2018-05-03T09:49:05.565Z,92448
2018-05-03T09:50:07.957Z,104256
2018-05-03T09:51:10.646Z,100832
2018-05-03T09:52:13.041Z,97120
2018-05-03T09:53:15.444Z,99840
2018-05-03T09:54:17.835Z,92832
2018-05-03T09:55:20.237Z,98272
2018-05-03T09:56:22.630Z,99584
2018-05-03T09:57:25.028Z,97600
2018-05-03T09:58:28.097Z,100288
2018-05-03T09:59:30.968Z,101440
2018-05-03T10:00:33.266Z,89120
2018-05-03T10:01:36.046Z,104288
2018-05-03T10:02:38.446Z,94144
2018-05-03T10:03:41.412Z,104768
2018-05-03T10:04:43.889Z,103808
2018-05-03T10:05:46.205Z,104288
2018-05-03T10:06:48.605Z,108512
2018-05-03T10:07:50.995Z,114304
2018-05-03T10:08:53.675Z,89536
2018-05-03T10:09:56.063Z,99552
2018-05-03T10:10:59.114Z,72832
2018-05-03T10:12:01.526Z,84864
2018-05-03T10:13:04.295Z,80480
2018-05-03T10:14:06.691Z,73280
2018-05-03T10:15:09.359Z,86048
2018-05-03T10:16:12.050Z,94400
2018-05-03T10:17:14.437Z,101664
2018-05-03T10:18:16.842Z,98816
2018-05-03T10:19:19.797Z,104800
2018-05-03T10:20:22.195Z,111904
2018-05-03T10:21:24.591Z,86848
2018-05-03T10:22:26.982Z,90432
2018-05-03T10:23:29.382Z,99584
2018-05-03T10:24:31.785Z,107776
2018-05-03T10:25:34.184Z,80480
2018-05-03T10:26:36.850Z,116448
2018-05-03T10:27:39.251Z,115104
2018-05-03T10:28:41.650Z,98912
2018-05-03T10:29:44.046Z,108992
2018-05-03T10:30:46.435Z,111840
2018-05-03T10:31:48.830Z,123840
2018-05-03T10:32:51.221Z,119712
2018-05-03T10:33:53.628Z,121312
2018-05-03T10:34:56.013Z,122400
2018-05-03T10:35:58.543Z,120960
2018-05-03T10:37:01.677Z,124512
2018-05-03T10:38:04.695Z,119136
2018-05-03T10:39:07.091Z,107424
2018-05-03T10:40:09.765Z,116640
2018-05-03T10:41:12.160Z,123360
2018-05-03T10:42:14.638Z,112608
2018-05-03T10:43:17.731Z,116736
2018-05-03T10:44:20.132Z,117504
2018-05-03T10:45:22.523Z,107168
2018-05-03T10:46:24.928Z,125056
2018-05-03T10:47:27.322Z,120896
2018-05-03T10:48:29.728Z,114240
2018-05-03T10:49:32.130Z,122976
2018-05-03T10:50:34.529Z,134496
2018-05-03T10:51:36.922Z,129472
2018-05-03T10:52:39.326Z,122240
2018-05-03T10:53:41.722Z,124512
2018-05-03T10:54:44.119Z,128160
2018-05-03T10:55:46.814Z,125632
2018-05-03T10:56:49.214Z,124928
2018-05-03T10:57:51.607Z,121216
2018-05-03T10:58:54.014Z,111904
2018-05-03T10:59:56.971Z,121984
2018-05-03T11:00:59.658Z,127840
2018-05-03T11:02:02.338Z,128832
2018-05-03T11:03:05.396Z,136416
2018-05-03T11:04:07.801Z,143904
2018-05-03T11:05:10.213Z,138336
2018-05-03T11:06:12.912Z,127200
2018-05-03T11:07:15.317Z,129760
2018-05-03T11:08:18.014Z,130080
2018-05-03T11:09:20.393Z,137152
2018-05-03T11:10:22.794Z,135776
2018-05-03T11:11:25.199Z,106976
2018-05-03T11:12:27.592Z,85728
2018-05-03T11:13:29.988Z,94400
2018-05-03T11:14:32.394Z,87936
2018-05-03T11:15:35.085Z,106752
2018-05-03T11:16:37.518Z,94240
2018-05-03T11:17:39.902Z,117600
2018-05-03T11:18:42.290Z,65152
2018-05-03T11:19:44.696Z,81408
2018-05-03T11:20:47.093Z,77280
2018-05-03T11:21:49.775Z,69376
2018-05-03T11:22:52.169Z,72928
2018-05-03T11:23:54.579Z,55936
2018-05-03T11:24:57.266Z,64992
2018-05-03T11:25:59.683Z,77920
2018-05-03T11:27:02.063Z,104736
2018-05-03T11:28:04.849Z,64928
2018-05-03T11:29:07.251Z,110976
2018-05-03T11:30:09.933Z,85728
2018-05-03T11:31:12.324Z,72672
2018-05-03T11:32:14.734Z,46528
2018-05-03T11:33:17.420Z,71328
2018-05-03T11:34:19.813Z,118016
2018-05-03T11:35:22.497Z,69312
2018-05-03T11:36:25.195Z,113216
2018-05-03T11:37:27.873Z,110784
2018-05-03T11:38:30.272Z,79840
2018-05-03T11:39:32.670Z,55936
2018-05-03T11:40:35.357Z,48064
2018-05-03T11:41:37.759Z,56768
2018-05-03T11:42:40.215Z,124736
2018-05-03T11:43:42.851Z,100832
2018-05-03T11:44:45.544Z,49792
2018-05-03T11:45:48.214Z,114176
2018-05-03T11:46:51.186Z,68768
2018-05-03T11:47:53.858Z,114560
2018-05-03T11:48:56.268Z,55360
2018-05-03T11:49:58.924Z,74496
2018-05-03T11:51:01.332Z,76896
2018-05-03T11:52:03.726Z,80256
2018-05-03T11:53:06.401Z,99488
2018-05-03T11:54:08.806Z,125184
2018-05-03T11:55:11.203Z,132352
2018-05-03T11:56:13.590Z,119488
2018-05-03T11:57:15.996Z,103936
2018-05-03T11:58:18.780Z,81248
2018-05-03T11:59:21.286Z,101344
2018-05-03T12:00:24.393Z,58944
2018-05-03T12:01:26.796Z,53184
2018-05-03T12:02:29.524Z,113504
2018-05-03T12:03:31.881Z,70368
2018-05-03T12:04:34.578Z,101600
2018-05-03T12:05:36.981Z,69856
2018-05-03T12:06:39.392Z,71872
2018-05-03T12:07:41.784Z,114816
2018-05-03T12:08:44.469Z,122432
2018-05-03T12:09:46.860Z,120000
2018-05-03T12:10:49.267Z,107648
2018-05-03T12:11:51.766Z,86656
2018-05-03T12:12:54.539Z,98240
2018-05-03T12:13:57.501Z,93664
2018-05-03T12:14:59.902Z,103360
2018-05-03T12:16:02.296Z,109632
2018-05-03T12:17:05.086Z,113344
2018-05-03T12:18:07.477Z,123648
2018-05-03T12:19:10.156Z,125280
2018-05-03T12:20:12.556Z,116800
2018-05-03T12:21:14.961Z,113824
2018-05-03T12:22:17.351Z,113984
2018-05-03T12:23:19.768Z,110080
2018-05-03T12:24:22.224Z,102816
2018-05-03T12:25:24.568Z,98144
2018-05-03T12:26:26.978Z,104608
2018-05-03T12:27:29.674Z,113056
2018-05-03T12:28:32.082Z,111712
2018-05-03T12:29:34.770Z,110016
2018-05-03T12:30:37.161Z,114176
2018-05-03T12:31:39.561Z,114528
2018-05-03T12:32:41.967Z,116576
2018-05-03T12:33:44.364Z,93472
2018-05-03T12:34:47.234Z,85600
2018-05-03T12:35:49.972Z,101056
2018-05-03T12:36:52.371Z,119168
2018-05-03T12:37:55.056Z,127552
2018-05-03T12:38:57.452Z,120032
2018-05-03T12:39:59.840Z,118016
2018-05-03T12:41:02.259Z,113952
2018-05-03T12:42:05.328Z,102432
2018-05-03T12:43:07.739Z,104384
2018-05-03T12:44:10.438Z,103968
2018-05-03T12:45:12.838Z,117504
2018-05-03T12:46:15.239Z,35872
2018-05-03T12:47:17.647Z,103808
2018-05-03T12:48:20.046Z,113568
2018-05-03T12:49:22.448Z,121824
2018-05-03T12:50:24.852Z,119936
2018-05-03T12:51:27.535Z,113728
2018-05-03T12:52:30.216Z,118752
2018-05-03T12:53:32.611Z,114240
2018-05-03T12:54:35.020Z,109696
2018-05-03T12:55:37.704Z,114880
2018-05-03T12:56:40.793Z,119520
2018-05-03T12:57:43.516Z,115552
2018-05-03T12:58:45.924Z,112704
2018-05-03T12:59:48.320Z,115872
2018-05-03T13:00:50.802Z,119680
2018-05-03T13:01:53.123Z,120960
2018-05-03T13:02:55.530Z,122656
2018-05-03T13:03:57.937Z,115040
2018-05-03T13:05:00.339Z,109312
2018-05-03T13:06:02.750Z,115232
2018-05-03T13:07:05.149Z,130464
2018-05-03T13:08:07.538Z,127648
2018-05-03T13:09:10.329Z,114848
2018-05-03T13:10:12.732Z,115552
2018-05-03T13:11:15.514Z,115552
2018-05-03T13:12:18.198Z,113760
2018-05-03T13:13:20.864Z,116672
2018-05-03T13:14:23.262Z,113920
2018-05-03T13:15:25.680Z,104032
2018-05-03T13:16:28.071Z,102720
2018-05-03T13:17:31.124Z,103616
2018-05-03T13:18:33.818Z,114176
2018-05-03T13:19:36.292Z,104128
2018-05-03T13:20:39.133Z,70080
2018-05-03T13:21:41.783Z,105568
2018-05-03T13:22:44.189Z,111968
2018-05-03T13:23:46.839Z,124320
2018-05-03T13:24:49.813Z,113344
2018-05-03T13:25:52.642Z,72800
2018-05-03T13:26:55.477Z,70368
2018-05-03T13:27:58.168Z,104320
2018-05-03T13:29:00.505Z,109856
2018-05-03T13:30:03.293Z,96608
2018-05-03T13:31:05.949Z,97280
2018-05-03T13:32:08.435Z,84896
2018-05-03T13:33:11.770Z,102816
2018-05-03T13:34:14.240Z,86880
2018-05-03T13:35:16.863Z,72672
2018-05-03T13:36:19.333Z,99680
2018-05-03T13:37:22.029Z,122656
2018-05-03T13:38:24.715Z,118976
2018-05-03T13:39:27.676Z,117600
2018-05-03T13:40:30.526Z,114176
2018-05-03T13:41:33.233Z,107392
2018-05-03T13:42:36.517Z,117760
2018-05-03T13:43:38.910Z,115008
2018-05-03T13:44:41.595Z,103360
2018-05-03T13:45:44.030Z,107680
2018-05-03T13:46:46.922Z,112896
2018-05-03T13:47:49.385Z,104352
2018-05-03T13:48:52.150Z,102048
2018-05-03T13:49:54.594Z,35392
2018-05-03T13:50:57.829Z,41792
2018-05-03T13:52:00.605Z,103168
2018-05-03T13:53:03.505Z,101632